Time;durP1;ratioP1;P1;durP2;ratioP2;P2;SDS_P1;SDS_P2;PMS_P1;PMS_P2;Temp;Humidity;BMP_temperature;BMP_pressure;BME280_temperature;BME280_humidity;BME280_pressure;Samples;Min_cycle;Max_cycle;Signal;HPM_P1;HPM_P2
2023/10/10 00:00:38;;;;;;;31.15;10.10;;;;;;;-144.73;100.00;54639.63;4982325;28;20087;-75
2023/10/10 00:03:05;;;;;;;23.40;10.40;;;;;;;-144.73;100.00;54651.97;4957582;28;20113;-75
2023/10/10 00:05:36;;;;;;;23.00;10.55;;;;;;;-144.73;100.00;54631.44;4979229;28;20422;-75
2023/10/10 00:08:05;;;;;;;27.23;12.13;;;;;;;-144.73;100.00;54641.69;4992195;28;20042;-76
2023/10/10 00:10:31;;;;;;;24.95;11.38;;;;;;;-144.73;100.00;54629.38;4964499;28;20082;-75
2023/10/10 00:13:00;;;;;;;29.58;10.95;;;;;;;-144.73;100.00;54600.63;4985377;28;20512;-76
2023/10/10 00:15:33;;;;;;;27.17;11.05;;;;;;;-144.73;100.00;54596.53;4972865;28;20034;-76
2023/10/10 00:18:02;;;;;;;33.72;12.25;;;;;;;-144.73;100.00;54608.84;4967042;28;20080;-76
2023/10/10 00:20:35;;;;;;;25.90;12.18;;;;;;;-144.73;100.00;54633.47;4970775;28;20034;-76
2023/10/10 00:23:04;;;;;;;28.35;12.75;;;;;;;-144.73;100.00;54600.63;4985703;28;20117;-76
2023/10/10 00:25:32;;;;;;;32.45;13.25;;;;;;;-144.73;100.00;54584.22;4969505;28;20038;-76
2023/10/10 00:28:09;;;;;;;31.58;13.95;;;;;;;-144.73;100.00;54641.69;4960056;28;20134;-75
2023/10/10 00:30:43;;;;;;;31.52;13.88;;;;;;;-144.73;100.00;54641.69;4953614;28;20026;-76
2023/10/10 00:33:09;;;;;;;41.13;14.07;;;;;;;-144.73;100.00;54633.47;5000738;28;20090;-75
2023/10/10 00:35:34;;;;;;;34.05;13.13;;;;;;;-144.73;100.00;54658.13;4969717;28;20077;-75
2023/10/10 00:38:05;;;;;;;37.63;15.13;;;;;;;-144.73;100.00;54662.22;4964884;28;20055;-76
2023/10/10 00:40:30;;;;;;;35.72;14.65;;;;;;;-144.73;100.00;54629.38;4966226;28;20026;-76
2023/10/10 00:42:58;;;;;;;33.53;15.07;;;;;;;-144.73;100.00;54645.78;4956021;28;20038;-75
2023/10/10 00:45:28;;;;;;;28.42;15.52;;;;;;;-144.73;100.00;54654.00;4965183;28;20027;-76
2023/10/10 00:47:55;;;;;;;38.00;15.55;;;;;;;-144.73;100.00;54656.06;4961833;28;20485;-76
2023/10/10 00:50:25;;;;;;;29.33;14.52;;;;;;;-144.73;100.00;54649.91;4994414;28;20173;-75
2023/10/10 00:53:00;;;;;;;35.13;16.13;;;;;;;-144.73;100.00;54649.91;4967971;28;20045;-76
2023/10/10 00:55:26;;;;;;;36.97;16.65;;;;;;;-144.73;100.00;54641.69;4978731;28;20031;-76
2023/10/10 00:57:56;;;;;;;36.05;16.85;;;;;;;-144.73;100.00;54670.44;4968338;28;20167;-75
2023/10/10 01:00:25;;;;;;;32.83;16.38;;;;;;;-144.73;100.00;54658.13;4974965;28;20022;-75
2023/10/10 01:02:51;;;;;;;34.97;18.40;;;;;;;-144.73;100.00;54637.59;4961125;28;20030;-75
2023/10/10 01:05:23;;;;;;;35.47;17.08;;;;;;;-144.73;100.00;54604.75;4960874;28;20068;-75
2023/10/10 01:07:51;;;;;;;34.65;17.17;;;;;;;-144.73;100.00;54612.97;4960217;28;20060;-75
2023/10/10 01:10:26;;;;;;;39.05;18.50;;;;;;;-144.73;100.00;54641.69;4956739;28;20039;-76
2023/10/10 01:12:56;;;;;;;31.95;17.45;;;;;;;-144.73;100.00;54645.78;4967272;28;20081;-75
2023/10/10 01:15:34;;;;;;;34.13;18.67;;;;;;;-144.73;100.00;54641.69;5021671;28;20041;-76
2023/10/10 01:18:00;;;;;;;36.00;18.27;;;;;;;-144.73;100.00;54654.00;4977274;28;20547;-76
2023/10/10 01:20:34;;;;;;;43.42;19.27;;;;;;;-144.73;100.00;54612.97;4962356;28;20026;-76
2023/10/10 01:23:02;;;;;;;30.40;17.10;;;;;;;-144.73;100.00;54610.91;4964574;28;20488;-76
2023/10/10 01:30:57;;;;;;;31.60;19.77;;;;;;;-144.73;100.00;54637.59;4968338;28;20018;-75
2023/10/10 01:33:36;;;;;;;36.45;20.90;;;;;;;-144.73;100.00;54660.16;4984191;28;20080;-75
2023/10/10 01:36:16;;;;;;;39.47;21.80;;;;;;;-144.73;100.00;54625.28;4968302;28;20030;-75
2023/10/10 01:38:44;;;;;;;35.90;20.08;;;;;;;-144.73;100.00;54654.00;4981042;28;20030;-74
2023/10/10 01:41:15;;;;;;;42.47;23.90;;;;;;;-144.73;100.00;54656.06;4977566;28;20039;-75
2023/10/10 01:43:46;;;;;;;37.38;21.52;;;;;;;-144.73;100.00;54658.13;4982005;28;20548;-75
2023/10/10 01:46:27;;;;;;;49.72;24.65;;;;;;;-144.73;100.00;54647.84;4982292;28;20113;-75
2023/10/10 01:48:53;;;;;;;48.25;24.05;;;;;;;-144.73;100.00;54674.53;4963611;28;20029;-74
2023/10/10 01:51:19;;;;;;;41.40;22.42;;;;;;;-144.73;100.00;54678.63;4974110;28;20034;-74
2023/10/10 01:53:44;;;;;;;50.95;26.52;;;;;;;-144.73;100.00;54629.38;4986276;28;20081;-74
2023/10/10 01:56:11;;;;;;;54.75;26.15;;;;;;;-144.73;100.00;54600.63;4970910;28;20035;-75
2023/10/10 01:58:37;;;;;;;51.63;27.33;;;;;;;-144.73;100.00;54633.47;4981048;28;20502;-75
2023/10/10 02:01:19;;;;;;;49.10;26.98;;;;;;;-144.73;100.00;54645.78;4959326;28;20031;-74
2023/10/10 02:03:46;;;;;;;54.15;27.60;;;;;;;-144.73;100.00;54645.78;4963015;28;20186;-75
2023/10/10 02:06:24;;;;;;;49.65;27.25;;;;;;;-144.73;100.00;54647.84;4973838;28;20034;-75
2023/10/10 02:08:59;;;;;;;48.25;25.02;;;;;;;-144.73;100.00;54670.44;4974291;28;20176;-75
2023/10/10 02:11:26;;;;;;;45.67;26.58;;;;;;;-144.73;100.00;54625.28;4970428;28;20026;-74
2023/10/10 02:13:53;;;;;;;48.05;25.98;;;;;;;-144.73;100.00;54637.59;4990706;28;20125;-74
2023/10/10 02:16:22;;;;;;;52.03;29.20;;;;;;;-144.73;100.00;54641.69;4970145;28;20023;-75
2023/10/10 02:18:51;;;;;;;53.95;28.25;;;;;;;-144.73;100.00;54637.59;4966992;28;20031;-74
2023/10/10 02:21:47;;;;;;;57.53;28.58;;;;;;;-144.73;100.00;54608.84;4955646;28;20027;-74
2023/10/10 02:25:31;;;;;;;52.00;27.85;;;;;;;-144.73;100.00;54684.78;4988410;28;20030;-75
2023/10/10 02:27:04;;;;;;;49.88;28.02;;;;;;;-144.73;100.00;54604.75;4976947;28;20062;-74
2023/10/10 02:32:19;;;;;;;58.13;29.08;;;;;;;-144.73;100.00;54641.69;4984426;28;20034;-75
2023/10/10 02:34:55;;;;;;;48.40;28.02;;;;;;;-144.73;100.00;54608.84;4989575;28;20115;-75
2023/10/10 02:40:06;;;;;;;51.83;28.98;;;;;;;-144.73;100.00;54645.78;4988340;28;20027;-74
2023/10/10 02:42:33;;;;;;;56.90;31.25;;;;;;;-144.73;100.00;54625.28;4966895;28;20126;-75
2023/10/10 02:44:59;;;;;;;62.85;30.30;;;;;;;-144.73;100.00;54588.31;4981269;28;20105;-74
2023/10/10 02:47:30;;;;;;;54.83;28.08;;;;;;;-144.73;100.00;54608.84;4968700;28;20045;-75
2023/10/10 02:50:01;;;;;;;62.58;31.55;;;;;;;-144.73;100.00;54580.13;4982711;28;20109;-75
2023/10/10 02:52:28;;;;;;;57.42;30.75;;;;;;;-144.73;100.00;54617.06;4961376;28;20053;-75
2023/10/10 02:54:54;;;;;;;58.35;29.33;;;;;;;-144.73;100.00;54654.00;4972979;28;20026;-74
2023/10/10 03:00:15;;;;;;;62.70;31.42;;;;;;;-144.73;100.00;54629.38;4984367;28;20041;-74
2023/10/10 03:02:49;;;;;;;62.00;29.75;;;;;;;-144.73;100.00;54670.44;4970018;28;20062;-75
2023/10/10 03:05:16;;;;;;;58.47;27.33;;;;;;;-144.73;100.00;54637.59;4964203;28;20018;-74
2023/10/10 03:07:51;;;;;;;64.60;30.70;;;;;;;-144.73;100.00;54629.38;4985177;28;20039;-75
2023/10/10 03:10:23;;;;;;;56.38;28.25;;;;;;;-144.73;100.00;54633.47;4967439;28;20030;-75
2023/10/10 03:13:03;;;;;;;63.88;31.05;;;;;;;-144.73;100.00;54637.59;4970459;28;20031;-75
2023/10/10 03:15:29;;;;;;;56.67;28.33;;;;;;;-144.73;100.00;54576.00;4971289;28;20023;-74
2023/10/10 03:25:45;;;;;;;64.10;31.85;;;;;;;-144.73;100.00;54623.22;4972761;28;20040;-75
2023/10/10 03:28:22;;;;;;;57.58;26.17;;;;;;;-144.73;100.00;54621.16;4966216;28;20126;-75
2023/10/10 03:31:24;;;;;;;61.88;30.88;;;;;;;-144.73;100.00;54645.78;4972591;28;20030;-73
2023/10/10 03:34:11;;;;;;;58.95;30.05;;;;;;;-144.73;100.00;54633.47;4985645;28;20033;-75
2023/10/10 03:37:27;;;;;;;59.20;30.50;;;;;;;-144.73;100.00;54629.38;4969690;28;20492;-74
2023/10/10 03:39:41;;;;;;;73.72;33.58;;;;;;;-144.73;100.00;54641.69;5060015;28;20506;-75
2023/10/10 05:23:49;;;;;;;61.25;27.52;;;;;;;-144.73;100.00;54608.84;4984659;28;20034;-74
2023/10/10 05:26:15;;;;;;;63.05;27.60;;;;;;;-144.73;100.00;54629.38;4961014;28;20088;-74
2023/10/10 05:28:45;;;;;;;62.10;26.05;;;;;;;-144.73;100.00;54625.28;4967559;28;20469;-74
2023/10/10 05:31:11;;;;;;;61.38;27.88;;;;;;;-144.73;100.00;54610.91;4983162;28;20080;-74
2023/10/10 05:33:36;;;;;;;58.92;27.08;;;;;;;-144.73;100.00;54625.28;4988884;28;20018;-74
2023/10/10 05:36:13;;;;;;;56.05;27.02;;;;;;;-144.73;100.00;54612.97;4969743;28;20374;-74
2023/10/10 05:38:39;;;;;;;62.10;28.10;;;;;;;-144.73;100.00;54584.22;4984847;28;20027;-74
2023/10/10 05:41:06;;;;;;;69.93;30.45;;;;;;;-144.73;100.00;54625.28;4974717;28;20037;-74
2023/10/10 05:43:35;;;;;;;77.82;30.65;;;;;;;-144.73;100.00;54592.44;4974791;28;20038;-74
2023/10/10 05:46:03;;;;;;;75.60;31.30;;;;;;;-144.73;100.00;54641.69;4967108;28;20113;-74
2023/10/10 05:48:31;;;;;;;69.45;29.55;;;;;;;-144.73;100.00;54625.28;4985685;28;20026;-73
2023/10/10 05:50:57;;;;;;;66.85;27.50;;;;;;;-144.73;100.00;54617.06;4976217;28;20022;-73
2023/10/10 05:53:24;;;;;;;62.95;27.63;;;;;;;-144.73;100.00;54641.69;4974840;28;20034;-75
2023/10/10 05:55:53;;;;;;;64.20;28.95;;;;;;;-144.73;100.00;54621.16;4974090;28;20037;-75
2023/10/10 05:58:20;;;;;;;64.50;27.40;;;;;;;-144.73;100.00;54594.47;4974817;28;20022;-75
2023/10/10 06:00:53;;;;;;;70.57;29.17;;;;;;;-144.73;100.00;54612.97;4959433;28;20023;-75
2023/10/10 06:03:21;;;;;;;70.20;27.27;;;;;;;-144.73;100.00;54654.00;4973314;28;20041;-73
2023/10/10 06:05:49;;;;;;;80.00;30.77;;;;;;;-144.73;100.00;54631.44;4974127;28;20026;-75
2023/10/10 06:08:15;;;;;;;87.70;31.80;;;;;;;-144.73;100.00;54619.13;5006695;28;20023;-75
2023/10/10 06:10:40;;;;;;;75.32;29.17;;;;;;;-144.73;100.00;54641.69;4970428;28;20038;-75
2023/10/10 06:13:06;;;;;;;68.60;28.90;;;;;;;-144.73;100.00;54625.28;4977971;28;20046;-75
2023/10/10 06:15:33;;;;;;;87.28;32.38;;;;;;;-144.73;100.00;54604.75;4975958;28;20550;-75
2023/10/10 06:18:08;;;;;;;69.45;28.60;;;;;;;-144.73;100.00;54670.44;4974220;28;20031;-76
2023/10/10 06:20:40;;;;;;;72.90;29.25;;;;;;;-144.73;100.00;54621.16;4980201;28;20026;-75
2023/10/10 06:23:07;;;;;;;76.85;32.45;;;;;;;-144.73;100.00;54621.16;4955483;28;20042;-75
2023/10/10 06:25:32;;;;;;;75.60;31.23;;;;;;;-144.73;100.00;54676.59;4965616;28;20026;-75
2023/10/10 06:28:00;;;;;;;74.72;31.02;;;;;;;-144.73;100.00;54612.97;4981998;28;20108;-75
2023/10/10 06:30:26;;;;;;;87.60;34.30;;;;;;;-144.73;100.00;54629.38;4970002;28;20023;-75
2023/10/10 06:32:54;;;;;;;82.45;35.13;;;;;;;-144.73;100.00;54658.13;4969890;28;20038;-72
2023/10/10 06:37:51;;;;;;;75.50;30.67;;;;;;;-144.73;100.00;54639.63;4988852;28;20038;-73
2023/10/10 06:40:24;;;;;;;78.93;32.67;;;;;;;-144.73;100.00;54631.44;4951434;28;20033;-73
2023/10/10 06:42:54;;;;;;;84.13;33.75;;;;;;;-144.73;100.00;54608.84;4958799;28;20033;-69
2023/10/10 06:45:22;;;;;;;78.32;31.83;;;;;;;-144.73;100.00;54645.78;4972673;28;20038;-70
2023/10/10 06:47:50;;;;;;;78.15;32.33;;;;;;;-144.73;100.00;54658.13;4963946;28;20042;-69
2023/10/10 06:50:21;;;;;;;91.53;32.13;;;;;;;-144.73;100.00;54625.28;4968472;28;20048;-70
2023/10/10 06:52:55;;;;;;;102.05;32.03;;;;;;;-144.73;100.00;54649.91;4965803;28;20026;-70
2023/10/10 06:55:23;;;;;;;103.68;34.58;;;;;;;-144.73;100.00;54633.47;4982263;28;20043;-70
2023/10/10 06:58:01;;;;;;;98.38;33.10;;;;;;;-144.73;100.00;54608.84;4987919;28;20035;-70
2023/10/10 07:00:29;;;;;;;92.88;34.67;;;;;;;-144.73;100.00;54629.38;4966706;28;20037;-70
2023/10/10 07:02:56;;;;;;;117.95;35.70;;;;;;;-144.73;100.00;54641.69;4976972;28;20067;-70
2023/10/10 07:05:26;;;;;;;118.90;35.67;;;;;;;-144.73;100.00;54604.75;4961595;28;20045;-70
2023/10/10 07:07:58;;;;;;;104.97;34.85;;;;;;;-144.73;100.00;54612.97;4973766;28;20035;-70
2023/10/10 07:10:35;;;;;;;126.75;36.53;;;;;;;-144.73;100.00;54621.16;4974220;28;20035;-70
2023/10/10 07:13:01;;;;;;;118.35;36.50;;;;;;;-144.73;100.00;54576.00;4958556;28;20631;-70
2023/10/10 07:15:33;;;;;;;121.85;36.83;;;;;;;-144.73;100.00;54621.16;4980054;28;20053;-70
2023/10/10 07:18:09;;;;;;;117.18;38.20;;;;;;;-144.73;100.00;54660.16;4963944;28;20016;-70
2023/10/10 07:23:22;;;;;;;114.80;34.30;;;;;;;-144.73;100.00;54617.06;4997212;28;20026;-70
2023/10/10 07:26:01;;;;;;;120.20;36.90;;;;;;;-144.73;100.00;54649.91;4996899;28;20042;-70
2023/10/10 07:28:29;;;;;;;110.63;36.20;;;;;;;-144.73;100.00;54592.44;4958281;28;20030;-70
2023/10/10 07:30:55;;;;;;;142.20;38.33;;;;;;;-144.73;100.00;54676.59;4981306;28;20039;-70
2023/10/10 07:33:29;;;;;;;123.95;36.58;;;;;;;-144.73;100.00;54627.31;4973481;28;20527;-71
2023/10/10 07:35:55;;;;;;;111.55;33.85;;;;;;;-144.73;100.00;54629.38;4972956;28;20114;-70
2023/10/10 07:38:27;;;;;;;120.00;35.83;;;;;;;-144.73;100.00;54658.13;4959005;28;20431;-70
2023/10/10 07:40:53;;;;;;;147.25;38.03;;;;;;;-144.73;100.00;54637.59;4977395;28;20031;-70
2023/10/10 07:43:20;;;;;;;112.03;34.38;;;;;;;-144.73;100.00;54645.78;4971247;28;20023;-70
2023/10/10 07:45:46;;;;;;;113.97;35.80;;;;;;;-144.73;100.00;54594.47;4961049;28;20035;-70
2023/10/10 07:50:47;;;;;;;115.07;37.92;;;;;;;-144.73;100.00;54604.75;4985571;28;20038;-70
2023/10/10 07:53:13;;;;;;;146.90;39.70;;;;;;;-144.73;100.00;54629.38;4977230;28;20018;-70
2023/10/10 08:01:10;;;;;;;139.95;38.80;;;;;;;-144.73;100.00;54621.16;4976992;28;20034;-70
2023/10/10 08:03:44;;;;;;;147.95;40.58;;;;;;;-144.73;100.00;54604.75;4964436;28;20026;-70
2023/10/10 08:06:21;;;;;;;103.68;32.63;;;;;;;-144.73;100.00;54592.44;4969005;28;20443;-70
2023/10/10 08:11:37;;;;;;;132.00;37.40;;;;;;;-144.73;100.00;54571.91;4984031;28;20043;-70
2023/10/10 08:14:08;;;;;;;139.18;37.85;;;;;;;-144.73;100.00;54645.78;4968731;28;20018;-69
2023/10/10 08:16:35;;;;;;;118.53;33.97;;;;;;;-144.73;100.00;54629.38;4986517;28;20496;-70
2023/10/10 08:19:10;;;;;;;120.40;34.97;;;;;;;-144.73;100.00;54674.53;4981603;28;20415;-69
2023/10/10 08:21:38;;;;;;;100.43;31.98;;;;;;;-144.73;100.00;54662.22;4954365;28;20065;-69
2023/10/10 08:24:08;;;;;;;118.63;35.15;;;;;;;-144.73;100.00;54625.28;4966967;28;20029;-70
2023/10/10 08:26:44;;;;;;;113.03;35.08;;;;;;;-144.73;100.00;54629.38;4974446;28;20045;-69
2023/10/10 08:29:11;;;;;;;109.72;34.50;;;;;;;-144.73;100.00;54629.38;4971688;28;20363;-69
2023/10/10 08:31:39;;;;;;;121.70;36.13;;;;;;;-144.73;100.00;54596.53;4975928;28;20031;-70
2023/10/10 08:34:05;;;;;;;108.43;35.70;;;;;;;-144.73;100.00;54608.84;4984527;28;20019;-70
2023/10/10 08:36:31;;;;;;;111.20;35.47;;;;;;;-144.73;100.00;54621.16;4951986;28;20065;-70
2023/10/10 08:41:42;;;;;;;99.03;34.55;;;;;;;-144.73;100.00;54633.47;4979147;28;20039;-70
2023/10/10 08:44:14;;;;;;;87.80;31.42;;;;;;;-144.73;100.00;54629.38;4961331;28;20031;-70
2023/10/10 08:46:41;;;;;;;104.30;33.00;;;;;;;-144.73;100.00;54627.31;4973987;28;20035;-70
2023/10/10 08:49:08;;;;;;;87.22;32.97;;;;;;;-144.73;100.00;54625.28;4969056;28;20060;-70
2023/10/10 08:51:35;;;;;;;82.65;30.58;;;;;;;-144.73;100.00;54621.16;4968738;28;20062;-69
2023/10/10 08:54:11;;;;;;;103.32;32.42;;;;;;;-144.73;100.00;54619.13;4983155;28;20344;-70
2023/10/10 08:56:53;;;;;;;60.45;26.40;;;;;;;-144.73;100.00;54625.28;4978781;28;20110;-70
2023/10/10 08:59:18;;;;;;;54.47;24.58;;;;;;;-144.73;100.00;54629.38;4963187;28;20065;-70
2023/10/10 09:01:44;;;;;;;68.47;28.48;;;;;;;-144.73;100.00;54629.38;4980788;28;20035;-70
2023/10/10 09:04:18;;;;;;;55.35;23.88;;;;;;;-144.73;100.00;54600.63;4978897;28;20362;-69
2023/10/10 09:06:58;;;;;;;60.92;23.50;;;;;;;-144.73;100.00;54629.38;4994738;28;20030;-70
2023/10/10 09:09:34;;;;;;;54.92;22.33;;;;;;;-144.73;100.00;54629.38;4968067;28;20079;-70
2023/10/10 09:12:03;;;;;;;51.30;21.38;;;;;;;-144.73;100.00;54629.38;4983833;28;20091;-69
2023/10/10 09:14:39;;;;;;;59.03;23.48;;;;;;;-144.73;100.00;54612.97;4961244;28;20045;-70
2023/10/10 09:17:06;;;;;;;42.60;20.38;;;;;;;-144.73;100.00;54617.06;4983285;28;20093;-70
2023/10/10 09:19:34;;;;;;;40.03;18.83;;;;;;;-144.73;100.00;54670.44;4967887;28;20030;-70
2023/10/10 09:22:02;;;;;;;33.17;17.70;;;;;;;-144.73;100.00;54604.75;4960381;28;20043;-71
2023/10/10 09:24:28;;;;;;;40.30;18.80;;;;;;;-144.73;100.00;54612.97;4981230;28;20022;-70
2023/10/10 09:26:56;;;;;;;34.88;17.88;;;;;;;-144.73;100.00;54600.63;4968614;28;20103;-71
2023/10/10 09:29:34;;;;;;;27.83;15.30;;;;;;;-144.73;100.00;54658.13;4965148;28;20030;-70
2023/10/10 09:32:01;;;;;;;35.08;15.70;;;;;;;-144.73;100.00;54621.16;4986676;28;20027;-70
2023/10/10 09:34:28;;;;;;;27.40;15.38;;;;;;;-144.73;100.00;54633.47;4965979;28;20037;-70
2023/10/10 09:36:57;;;;;;;36.05;15.75;;;;;;;-144.73;100.00;54621.16;4958942;28;20069;-71
2023/10/10 09:39:27;;;;;;;23.92;16.27;;;;;;;-144.73;100.00;54621.16;4967595;28;20026;-70
2023/10/10 09:58:00;;;;;;;27.30;12.38;;;;;;;-144.73;100.00;54645.78;4978508;28;20117;-70
2023/10/10 10:00:35;;;;;;;22.05;12.10;;;;;;;-144.73;100.00;54604.75;4976778;28;20062;-71
2023/10/10 10:03:31;;;;;;;21.63;12.25;;;;;;;-144.73;100.00;54584.22;4976131;28;20045;-71
2023/10/10 10:09:32;;;;;;;17.38;10.98;;;;;;;-144.73;100.00;54615.00;4998548;28;20058;-71
2023/10/10 10:12:19;;;;;;;18.13;10.77;;;;;;;-144.73;100.00;54637.59;4978380;28;20122;-71
2023/10/10 10:15:01;;;;;;;22.00;11.10;;;;;;;-144.73;100.00;54604.75;4963760;28;20162;-72
2023/10/10 10:18:11;;;;;;;20.85;9.07;;;;;;;-144.73;100.00;54621.16;4973481;28;20030;-71
2023/10/10 10:20:46;;;;;;;22.27;8.85;;;;;;;-144.73;100.00;54615.00;4978812;28;20094;-71
2023/10/10 10:23:27;;;;;;;17.92;8.73;;;;;;;-144.73;100.00;54576.00;4962789;28;20023;-71
2023/10/10 10:26:08;;;;;;;22.80;7.80;;;;;;;-144.73;100.00;54629.38;5001402;28;20122;-71
2023/10/10 10:28:37;;;;;;;17.23;7.22;;;;;;;-144.73;100.00;54621.16;5004891;28;20027;-72
2023/10/10 10:31:16;;;;;;;22.13;7.38;;;;;;;-144.73;100.00;54586.28;4978467;28;20122;-72
2023/10/10 10:34:31;;;;;;;11.95;6.80;;;;;;;-144.73;100.00;54617.06;4980996;28;20075;-72
2023/10/10 10:37:06;;;;;;;11.85;6.57;;;;;;;-144.73;100.00;54592.44;4972797;28;20027;-72
2023/10/10 10:39:37;;;;;;;12.98;6.03;;;;;;;-144.73;100.00;54649.91;4960487;28;20355;-72
2023/10/10 10:42:11;;;;;;;9.70;5.00;;;;;;;-144.73;100.00;54594.47;4963639;28;20039;-72
2023/10/10 10:44:45;;;;;;;12.43;5.85;;;;;;;-144.73;100.00;54559.59;4977802;28;20076;-72
2023/10/10 10:47:35;;;;;;;9.15;5.47;;;;;;;-144.73;100.00;54604.75;4959983;28;20022;-72
2023/10/10 10:50:17;;;;;;;9.32;4.43;;;;;;;-144.73;100.00;54596.53;4954037;28;20091;-72
2023/10/10 10:52:48;;;;;;;12.38;4.80;;;;;;;-144.73;100.00;54619.13;4979097;28;20038;-72
2023/10/10 10:55:40;;;;;;;10.93;4.80;;;;;;;-144.73;100.00;54617.06;4961374;28;20026;-72
2023/10/10 10:58:07;;;;;;;16.75;4.93;;;;;;;-144.73;100.00;54588.31;4961973;28;20018;-72
2023/10/10 11:03:33;;;;;;;5.63;3.58;;;;;;;-144.73;100.00;54590.38;4995820;28;20087;-72
2023/10/10 11:06:09;;;;;;;19.48;4.93;;;;;;;-144.73;100.00;54600.63;4959637;28;20061;-72
2023/10/10 11:16:56;;;;;;;13.38;4.03;;;;;;;-144.73;100.00;54559.59;4981009;28;20049;-72
2023/10/10 11:21:53;;;;;;;11.95;4.53;;;;;;;-144.73;100.00;54596.53;4972459;28;20027;-73
2023/10/10 11:24:24;;;;;;;13.65;4.50;;;;;;;-144.73;100.00;54576.00;4980460;28;20031;-72
2023/10/10 11:29:50;;;;;;;8.48;4.68;;;;;;;-144.73;100.00;54543.16;4970074;28;20034;-72
2023/10/10 11:32:29;;;;;;;9.98;4.85;;;;;;;-144.73;100.00;54555.47;4976413;28;20175;-73
2023/10/10 11:35:17;;;;;;;8.65;5.40;;;;;;;-144.73;100.00;54567.81;4964954;28;20049;-73
2023/10/10 11:37:49;;;;;;;10.20;4.50;;;;;;;-144.73;100.00;54600.63;4979394;28;20031;-72
2023/10/10 11:43:11;;;;;;;11.07;5.05;;;;;;;-144.73;100.00;54588.31;4989173;28;21040;-72
2023/10/10 11:45:50;;;;;;;6.22;3.72;;;;;;;-144.73;100.00;54561.63;4968441;28;20063;-72
2023/10/10 11:48:15;;;;;;;10.32;3.65;;;;;;;-144.73;100.00;54588.31;4992049;28;20018;-72
2023/10/10 11:50:49;;;;;;;10.20;3.00;;;;;;;-144.73;100.00;54571.91;4956585;28;20466;-72
2023/10/10 11:53:19;;;;;;;5.35;2.92;;;;;;;-144.73;100.00;54586.28;4961809;28;20512;-73
2023/10/10 11:55:46;;;;;;;6.53;2.57;;;;;;;-144.73;100.00;54588.31;4987839;28;20086;-72
2023/10/10 11:58:17;;;;;;;7.68;3.28;;;;;;;-144.73;100.00;54567.81;4954218;28;20042;-72
2023/10/10 12:00:44;;;;;;;15.20;2.40;;;;;;;-144.73;100.00;54588.31;4989180;28;20043;-72
2023/10/10 12:03:32;;;;;;;6.20;2.30;;;;;;;-144.73;100.00;54514.44;4956594;28;20019;-72
2023/10/10 12:05:59;;;;;;;6.60;3.15;;;;;;;-144.73;100.00;54584.22;4958129;28;20046;-73
2023/10/10 12:08:25;;;;;;;7.20;2.58;;;;;;;-144.73;100.00;54559.59;4986554;28;20030;-73
2023/10/10 12:10:53;;;;;;;5.47;2.45;;;;;;;-144.73;100.00;54545.22;4990975;28;20032;-73
2023/10/10 12:16:12;;;;;;;8.70;2.85;;;;;;;-144.73;100.00;54590.38;4976341;28;20125;-73
2023/10/10 12:18:52;;;;;;;8.60;2.47;;;;;;;-144.73;100.00;54580.13;4970115;28;20023;-73
2023/10/10 12:21:22;;;;;;;11.75;2.60;;;;;;;-144.73;100.00;54576.00;4976764;28;20042;-73
2023/10/10 12:23:56;;;;;;;8.98;2.67;;;;;;;-144.73;100.00;54586.28;4979470;28;20046;-73
2023/10/10 12:26:23;;;;;;;6.00;2.45;;;;;;;-144.73;100.00;54567.81;4979959;28;20026;-74
2023/10/10 12:28:52;;;;;;;10.38;2.22;;;;;;;-144.73;100.00;54602.69;4964674;28;20035;-73
2023/10/10 12:31:21;;;;;;;4.22;2.70;;;;;;;-144.73;100.00;54594.47;4963734;28;20101;-74
2023/10/10 12:33:48;;;;;;;8.68;2.85;;;;;;;-144.73;100.00;54567.81;4984099;28;20033;-73
2023/10/10 12:36:28;;;;;;;5.00;2.75;;;;;;;-144.73;100.00;54563.69;4954498;28;20041;-73
2023/10/10 12:38:55;;;;;;;11.32;3.15;;;;;;;-144.73;100.00;54547.28;4968730;28;20023;-73
2023/10/10 12:41:21;;;;;;;5.22;2.38;;;;;;;-144.73;100.00;54600.63;4976524;28;20027;-73
2023/10/10 12:43:47;;;;;;;6.15;3.03;;;;;;;-144.73;100.00;54571.91;4961157;28;20046;-73
2023/10/10 12:46:16;;;;;;;7.82;3.33;;;;;;;-144.73;100.00;54576.00;4964107;28;20061;-73
2023/10/10 12:48:55;;;;;;;13.02;3.13;;;;;;;-144.73;100.00;54576.00;4967379;28;20113;-74
2023/10/10 12:51:25;;;;;;;8.50;3.00;;;;;;;-144.73;100.00;54543.16;4971699;28;20030;-74
2023/10/10 12:54:00;;;;;;;7.70;3.33;;;;;;;-144.73;100.00;54608.84;4967778;28;20029;-74
2023/10/10 12:56:27;;;;;;;11.82;3.20;;;;;;;-144.73;100.00;54604.75;4954681;28;20039;-74
2023/10/10 12:58:55;;;;;;;8.63;2.88;;;;;;;-144.73;100.00;54580.13;4955829;28;20091;-71
2023/10/10 13:01:23;;;;;;;4.93;2.80;;;;;;;-144.73;100.00;54621.16;4983232;28;20062;-72
2023/10/10 13:03:50;;;;;;;13.25;3.22;;;;;;;-144.73;100.00;54563.69;4950981;28;20026;-72
2023/10/10 13:06:16;;;;;;;10.05;2.92;;;;;;;-144.73;100.00;54551.38;4980708;28;20041;-72
2023/10/10 13:08:54;;;;;;;16.08;3.80;;;;;;;-144.73;100.00;54559.59;4953053;28;20019;-72
2023/10/10 13:11:32;;;;;;;10.85;3.20;;;;;;;-144.73;100.00;54553.44;4951202;28;20053;-72
2023/10/10 13:14:09;;;;;;;8.23;3.25;;;;;;;-144.73;100.00;54567.81;4956661;28;20042;-72
2023/10/10 13:19:06;;;;;;;5.38;3.05;;;;;;;-144.73;100.00;54547.28;4967975;28;20033;-73
2023/10/10 13:21:35;;;;;;;8.00;3.38;;;;;;;-144.73;100.00;54571.91;4970716;28;20091;-73
2023/10/10 13:24:01;;;;;;;6.80;3.78;;;;;;;-144.73;100.00;54580.13;4981114;28;20030;-73
2023/10/10 13:26:27;;;;;;;9.80;4.18;;;;;;;-144.73;100.00;54600.63;4974772;28;20045;-73
2023/10/10 13:28:53;;;;;;;8.77;4.00;;;;;;;-144.73;100.00;54576.00;4973676;28;20035;-73
2023/10/10 13:31:19;;;;;;;8.25;3.90;;;;;;;-144.73;100.00;54571.91;4980587;28;20030;-73
2023/10/10 13:33:45;;;;;;;13.32;4.68;;;;;;;-144.73;100.00;54563.69;4961332;28;20022;-73
2023/10/10 13:36:14;;;;;;;5.68;3.85;;;;;;;-144.73;100.00;54604.75;4977162;28;20117;-73
2023/10/10 13:38:48;;;;;;;10.10;4.78;;;;;;;-144.73;100.00;54563.69;4972886;28;20030;-73
2023/10/10 13:41:18;;;;;;;20.58;4.53;;;;;;;-144.73;100.00;54576.00;4977008;28;20156;-73
2023/10/10 13:43:51;;;;;;;16.88;4.85;;;;;;;-144.73;100.00;54573.97;4966485;28;20037;-73
2023/10/10 13:46:23;;;;;;;7.05;4.50;;;;;;;-144.73;100.00;54621.16;4962158;28;20072;-72
2023/10/10 13:48:49;;;;;;;13.73;6.28;;;;;;;-144.73;100.00;54559.59;4976203;28;20022;-73
2023/10/10 13:51:16;;;;;;;15.30;5.20;;;;;;;-144.73;100.00;54604.75;4965737;28;20029;-73
2023/10/10 13:53:43;;;;;;;16.63;5.93;;;;;;;-144.73;100.00;54625.28;4999529;28;20070;-73
2023/10/10 13:56:10;;;;;;;14.75;6.82;;;;;;;-144.73;100.00;54592.44;4964846;28;21269;-73
2023/10/10 13:58:36;;;;;;;14.75;7.03;;;;;;;-144.73;100.00;54559.59;4977838;28;20023;-73
2023/10/10 14:01:47;;;;;;;20.20;6.63;;;;;;;-144.73;100.00;54576.00;4981288;28;20030;-73
2023/10/10 14:03:57;;;;;;;14.07;7.38;;;;;;;-144.73;100.00;54551.38;4973872;28;20061;-73
2023/10/10 14:06:26;;;;;;;18.25;7.70;;;;;;;-144.73;100.00;54547.28;5003070;28;20133;-72
2023/10/10 14:08:53;;;;;;;15.55;6.75;;;;;;;-144.73;100.00;54555.47;4983462;28;20026;-71
2023/10/10 14:11:22;;;;;;;13.70;6.78;;;;;;;-144.73;100.00;54592.44;4990073;28;20030;-71
2023/10/10 14:13:49;;;;;;;18.40;7.45;;;;;;;-144.73;100.00;54600.63;4954230;28;20035;-72
2023/10/10 14:16:15;;;;;;;13.35;7.45;;;;;;;-144.73;100.00;54612.97;4974082;28;20080;-74
2023/10/10 14:18:47;;;;;;;12.02;8.75;;;;;;;-144.73;100.00;54625.28;4974430;28;20037;-72
2023/10/10 14:21:16;;;;;;;12.90;7.28;;;;;;;-144.73;100.00;54606.78;4988061;28;20053;-71